Time;durP1;ratioP1;P1;durP2;ratioP2;P2;SDS_P1;SDS_P2;PMS_P1;PMS_P2;Temp;Humidity;BMP_temperature;BMP_pressure;BME280_temperature;BME280_humidity;BME280_pressure;Samples;Min_cycle;Max_cycle;Signal;HPM_P1;HPM_P2
2022/05/11 00:01:12;;;;;;;6.25;5.65;;;21.10;99.90;;;;;;5057009;28;20203;-77
2022/05/11 00:03:39;;;;;;;8.57;5.90;;;20.80;99.90;;;;;;5056916;28;20215;-76
2022/05/11 00:06:05;;;;;;;8.15;6.32;;;20.70;99.90;;;;;;5057072;28;20215;-76
2022/05/11 00:08:30;;;;;;;10.63;6.38;;;20.60;99.90;;;;;;5056675;28;20644;-76
2022/05/11 00:10:55;;;;;;;9.45;6.53;;;20.60;99.90;;;;;;5056932;28;20637;-76
2022/05/11 00:13:21;;;;;;;7.65;6.75;;;20.50;99.90;;;;;;5055543;28;20203;-76
2022/05/11 00:15:46;;;;;;;8.27;6.35;;;20.50;99.90;;;;;;5055664;28;20249;-77
2022/05/11 00:18:12;;;;;;;10.00;6.03;;;20.30;99.90;;;;;;5056246;28;20214;-76
2022/05/11 00:20:37;;;;;;;12.10;6.13;;;20.30;99.90;;;;;;5054336;28;20831;-76
2022/05/11 00:23:03;;;;;;;7.03;6.38;;;20.50;99.90;;;;;;5052559;28;20206;-77
2022/05/11 00:25:29;;;;;;;8.48;6.40;;;20.50;99.90;;;;;;5052124;28;20256;-76
2022/05/11 00:27:57;;;;;;;8.75;7.25;;;20.50;99.90;;;;;;5049753;28;20743;-76
2022/05/11 00:30:25;;;;;;;8.43;6.55;;;20.50;99.90;;;;;;5052997;28;20211;-77
2022/05/11 00:32:56;;;;;;;6.82;6.03;;;20.50;99.90;;;;;;5053380;28;20171;-76
2022/05/11 00:35:23;;;;;;;9.63;6.35;;;20.50;99.90;;;;;;5053740;28;20179;-77
2022/05/11 00:37:48;;;;;;;15.35;6.88;;;20.50;99.90;;;;;;5053093;28;20837;-76
2022/05/11 00:40:15;;;;;;;9.38;6.68;;;20.40;99.90;;;;;;5051243;28;20207;-77
2022/05/11 00:42:40;;;;;;;7.07;6.28;;;20.50;99.90;;;;;;5051953;28;20249;-77
2022/05/11 00:45:07;;;;;;;9.55;6.82;;;20.20;99.90;;;;;;5053492;28;20649;-78
2022/05/11 00:47:42;;;;;;;6.72;6.00;;;20.20;99.90;;;;;;5053500;28;20182;-76
2022/05/11 00:50:18;;;;;;;7.78;6.18;;;20.10;99.90;;;;;;5052872;28;20299;-76
2022/05/11 00:52:52;;;;;;;8.23;6.32;;;20.10;99.90;;;;;;5051776;28;20213;-76
2022/05/11 00:55:28;;;;;;;9.45;6.25;;;19.90;99.90;;;;;;5053201;28;20209;-76
2022/05/11 00:58:00;;;;;;;7.72;6.15;;;19.90;99.90;;;;;;5049315;28;20195;-76
2022/05/11 01:00:27;;;;;;;7.03;6.28;;;19.80;99.90;;;;;;5052832;28;20250;-76
2022/05/11 01:03:00;;;;;;;7.15;6.07;;;19.80;99.90;;;;;;5053240;28;20172;-76
2022/05/11 01:05:26;;;;;;;8.18;6.53;;;19.80;99.90;;;;;;5053191;28;20261;-76
2022/05/11 01:07:54;;;;;;;6.68;5.93;;;19.90;99.90;;;;;;5052418;28;20584;-76
2022/05/11 01:10:20;;;;;;;8.18;7.10;;;19.80;99.90;;;;;;5053353;28;20581;-76
2022/05/11 01:12:49;;;;;;;6.28;5.68;;;19.80;99.90;;;;;;5053016;28;20208;-76
2022/05/11 01:15:17;;;;;;;6.55;5.95;;;19.80;99.90;;;;;;5053773;28;20204;-76
2022/05/11 01:17:43;;;;;;;8.30;6.25;;;19.70;99.90;;;;;;5050757;28;20652;-77
2022/05/11 01:20:17;;;;;;;8.25;6.32;;;19.60;99.90;;;;;;5052684;28;20249;-76
2022/05/11 01:23:00;;;;;;;8.38;6.18;;;19.50;99.90;;;;;;5052692;28;20230;-76
2022/05/11 01:25:26;;;;;;;10.43;6.03;;;19.40;99.90;;;;;;5052379;28;20234;-77
2022/05/11 01:28:04;;;;;;;7.10;5.60;;;19.30;99.90;;;;;;5048869;28;20218;-77
2022/05/11 01:30:31;;;;;;;7.80;5.82;;;19.40;99.90;;;;;;5052218;28;20224;-76
2022/05/11 01:32:57;;;;;;;7.22;5.63;;;19.20;99.90;;;;;;5052217;28;20206;-77
2022/05/11 01:35:34;;;;;;;10.00;5.88;;;19.20;99.90;;;;;;5052752;28;20204;-77
2022/05/11 01:38:21;;;;;;;7.50;5.65;;;19.20;99.90;;;;;;5051591;28;20675;-76
2022/05/11 01:40:47;;;;;;;7.53;5.40;;;19.20;99.90;;;;;;5050774;28;20680;-77
2022/05/11 01:43:18;;;;;;;6.22;5.63;;;19.20;99.90;;;;;;5052287;28;20590;-76
2022/05/11 01:45:44;;;;;;;7.20;6.13;;;19.30;99.90;;;;;;5051974;28;20215;-78
2022/05/11 01:48:10;;;;;;;7.53;5.53;;;19.30;99.90;;;;;;5051092;28;20777;-76
2022/05/11 01:50:36;;;;;;;8.32;6.38;;;19.20;99.90;;;;;;5050927;28;20230;-77
2022/05/11 01:53:02;;;;;;;8.63;6.25;;;19.30;99.90;;;;;;5052027;28;20250;-76
2022/05/11 01:55:28;;;;;;;9.48;6.05;;;19.30;99.90;;;;;;5051793;28;20200;-76
2022/05/11 01:57:53;;;;;;;6.88;5.95;;;19.30;99.90;;;;;;5048224;28;20204;-76
2022/05/11 02:00:19;;;;;;;8.77;5.90;;;19.30;99.90;;;;;;5051530;28;20204;-76
2022/05/11 02:02:44;;;;;;;6.25;5.65;;;19.20;99.90;;;;;;5050410;28;20207;-77
2022/05/11 02:07:55;;;;;;;6.90;5.82;;;19.10;99.90;;;;;;5051428;28;20234;-77
2022/05/11 02:10:24;;;;;;;8.43;5.60;;;19.20;99.90;;;;;;5051305;28;20207;-76
2022/05/11 02:12:50;;;;;;;7.18;5.82;;;19.10;99.90;;;;;;5051604;28;20564;-76
2022/05/11 02:15:17;;;;;;;7.18;6.47;;;19.10;99.90;;;;;;5051578;28;20207;-75
2022/05/11 02:17:43;;;;;;;7.78;5.32;;;19.10;99.90;;;;;;5050984;28;20266;-76
2022/05/11 02:20:10;;;;;;;5.90;5.30;;;19.20;99.90;;;;;;5051354;28;20215;-76
2022/05/11 02:22:37;;;;;;;9.50;5.85;;;19.40;99.90;;;;;;5051424;28;20246;-76
2022/05/11 02:25:03;;;;;;;7.30;5.85;;;19.30;99.90;;;;;;5050066;28;20218;-77
2022/05/11 02:27:31;;;;;;;8.13;6.03;;;19.30;99.90;;;;;;5046277;28;20208;-76
2022/05/11 02:29:57;;;;;;;6.68;5.32;;;19.30;99.90;;;;;;5049233;28;20253;-76
2022/05/11 02:32:23;;;;;;;6.28;5.28;;;19.30;99.90;;;;;;5050406;28;20898;-76
2022/05/11 02:37:33;;;;;;;8.45;5.82;;;19.50;99.90;;;;;;5051988;28;20215;-76
2022/05/11 02:39:59;;;;;;;7.70;5.82;;;19.60;99.90;;;;;;5044675;28;20216;-77
2022/05/11 02:42:24;;;;;;;8.65;6.28;;;19.50;99.90;;;;;;5011443;28;20633;-77
2022/05/11 02:44:50;;;;;;;7.80;6.05;;;19.40;99.90;;;;;;5029118;28;20793;-77
2022/05/11 02:47:15;;;;;;;6.43;5.75;;;19.40;99.90;;;;;;5031539;28;20202;-76
2022/05/11 02:49:41;;;;;;;6.03;5.20;;;19.30;99.90;;;;;;5028714;28;20203;-77
2022/05/11 02:52:07;;;;;;;7.50;5.65;;;19.50;99.90;;;;;;5031168;28;20200;-77
2022/05/11 02:54:32;;;;;;;10.30;5.65;;;19.40;99.90;;;;;;5030684;28;20296;-77
2022/05/11 02:56:58;;;;;;;11.48;6.75;;;19.30;99.90;;;;;;5029568;28;20449;-77
2022/05/11 02:59:23;;;;;;;6.80;6.20;;;19.30;99.90;;;;;;5030417;28;20239;-76
2022/05/11 03:01:51;;;;;;;10.38;7.65;;;19.20;99.90;;;;;;5032508;28;20290;-77
2022/05/11 03:04:17;;;;;;;8.82;6.45;;;19.40;99.90;;;;;;5037420;28;20208;-77
2022/05/11 03:06:47;;;;;;;7.50;6.63;;;19.40;99.90;;;;;;5029666;28;20208;-77
2022/05/11 03:09:16;;;;;;;7.32;6.40;;;19.30;99.90;;;;;;5029002;28;20219;-77
2022/05/11 03:11:43;;;;;;;7.07;5.93;;;19.30;99.90;;;;;;5033071;28;20641;-77
2022/05/11 03:14:09;;;;;;;6.85;5.93;;;19.40;99.90;;;;;;5029836;28;20176;-76
2022/05/11 03:16:47;;;;;;;7.88;6.38;;;19.40;99.90;;;;;;5102931;27;20569;-75
2022/05/11 03:19:12;;;;;;;7.13;5.82;;;19.20;99.90;;;;;;5107960;28;20254;-75
2022/05/11 03:21:38;;;;;;;10.63;6.55;;;19.20;99.90;;;;;;5108652;27;20205;-75
2022/05/11 03:24:04;;;;;;;9.32;6.80;;;19.20;99.90;;;;;;5106307;28;20298;-75
2022/05/11 03:26:29;;;;;;;9.07;6.50;;;19.20;99.90;;;;;;5107873;28;20189;-76
2022/05/11 03:28:56;;;;;;;8.30;6.70;;;19.40;99.90;;;;;;5107821;27;20273;-76
2022/05/11 03:31:22;;;;;;;10.35;6.93;;;19.30;99.90;;;;;;5108690;27;20698;-75
2022/05/11 03:36:32;;;;;;;9.48;6.50;;;19.20;99.90;;;;;;5108328;27;20239;-75
2022/05/11 03:38:57;;;;;;;8.82;6.97;;;19.20;99.90;;;;;;5116253;27;20631;-76
2022/05/11 03:41:23;;;;;;;9.10;6.50;;;19.40;99.90;;;;;;5112110;28;20219;-75
2022/05/11 03:43:48;;;;;;;6.72;6.03;;;19.50;99.90;;;;;;5109622;27;20240;-75
2022/05/11 03:46:14;;;;;;;8.57;6.80;;;19.20;99.90;;;;;;5114048;27;20725;-76
2022/05/11 03:48:40;;;;;;;9.38;6.53;;;19.10;99.90;;;;;;5105998;28;20283;-76
2022/05/11 03:51:05;;;;;;;7.55;5.97;;;19.30;99.90;;;;;;5106889;28;20213;-75
2022/05/11 03:53:32;;;;;;;8.30;6.60;;;19.50;99.90;;;;;;5108276;28;20182;-76
2022/05/11 03:55:58;;;;;;;7.15;6.45;;;19.60;99.90;;;;;;5107901;27;20725;-75
2022/05/11 03:58:23;;;;;;;7.85;6.30;;;19.60;99.90;;;;;;5107087;27;20339;-75
2022/05/11 04:00:49;;;;;;;7.85;6.00;;;19.60;99.90;;;;;;5107990;27;20251;-76
2022/05/11 04:03:15;;;;;;;6.15;5.55;;;19.60;99.90;;;;;;5107979;27;20217;-75
2022/05/11 04:05:41;;;;;;;9.95;7.00;;;19.60;99.90;;;;;;5107785;27;20666;-75
2022/05/11 04:08:06;;;;;;;7.90;6.40;;;19.70;99.90;;;;;;5107812;28;20217;-75
2022/05/11 04:10:32;;;;;;;7.05;6.20;;;19.60;99.90;;;;;;5110269;27;20212;-76
2022/05/11 04:13:00;;;;;;;8.38;7.18;;;19.60;99.90;;;;;;5103713;27;20674;-76
2022/05/11 04:15:25;;;;;;;9.55;7.75;;;19.60;99.90;;;;;;5107706;27;20304;-76
2022/05/11 04:17:51;;;;;;;10.43;8.02;;;19.50;99.90;;;;;;5107424;27;20220;-78
2022/05/11 04:20:18;;;;;;;9.32;8.10;;;19.60;99.90;;;;;;5107789;28;20186;-77
2022/05/11 04:22:44;;;;;;;9.88;7.25;;;19.60;99.90;;;;;;5107370;27;20670;-77
2022/05/11 04:25:14;;;;;;;10.68;7.47;;;19.70;99.90;;;;;;5107527;27;20213;-74
2022/05/11 04:27:40;;;;;;;10.40;7.63;;;19.60;99.90;;;;;;5096290;28;20213;-75
2022/05/11 04:30:06;;;;;;;9.77;7.85;;;19.60;99.90;;;;;;5091904;28;20251;-76
2022/05/11 04:32:32;;;;;;;10.80;8.15;;;19.70;99.90;;;;;;5092609;28;20308;-75
2022/05/11 04:34:57;;;;;;;10.15;8.10;;;19.70;99.90;;;;;;5093834;28;20226;-76
2022/05/11 04:37:23;;;;;;;11.05;7.82;;;19.80;99.90;;;;;;5094195;28;20194;-76
2022/05/11 04:39:48;;;;;;;9.23;7.93;;;19.70;99.90;;;;;;5101142;28;20198;-75
2022/05/11 04:42:14;;;;;;;9.70;7.82;;;19.60;99.90;;;;;;5081574;28;20198;-75
2022/05/11 04:44:40;;;;;;;10.38;7.95;;;19.60;99.90;;;;;;5093413;28;20567;-75
2022/05/11 04:47:11;;;;;;;11.55;7.50;;;19.60;99.90;;;;;;5093875;28;20251;-76
2022/05/11 04:49:37;;;;;;;8.70;7.88;;;19.70;99.90;;;;;;5092436;28;20211;-77
2022/05/11 04:52:09;;;;;;;8.48;7.68;;;19.70;99.90;;;;;;5093289;28;20201;-77
2022/05/11 04:54:36;;;;;;;9.95;8.25;;;19.50;99.90;;;;;;5092819;28;20202;-76
2022/05/11 04:57:02;;;;;;;10.07;8.50;;;19.60;99.90;;;;;;5093086;28;20289;-76
2022/05/11 04:59:28;;;;;;;11.65;7.95;;;19.70;99.90;;;;;;5106373;28;20320;-77
2022/05/11 05:01:53;;;;;;;10.85;8.20;;;19.70;99.90;;;;;;5113462;27;20654;-77
2022/05/11 05:04:20;;;;;;;13.02;8.15;;;19.70;99.90;;;;;;5112461;28;20198;-76
2022/05/11 05:06:45;;;;;;;11.38;8.20;;;19.80;99.90;;;;;;5112515;27;20618;-77
2022/05/11 05:09:11;;;;;;;10.77;8.55;;;19.50;99.90;;;;;;5111864;28;20212;-76
2022/05/11 05:11:37;;;;;;;10.48;9.32;;;19.50;99.90;;;;;;5114188;28;20177;-76
2022/05/11 05:14:06;;;;;;;12.70;10.85;;;19.30;99.90;;;;;;5112263;28;20202;-77
2022/05/11 05:16:33;;;;;;;11.65;8.65;;;19.20;99.90;;;;;;5112073;28;20773;-77
2022/05/11 05:18:58;;;;;;;9.77;8.85;;;19.20;99.90;;;;;;5112690;27;20297;-78
2022/05/11 05:21:24;;;;;;;10.02;9.00;;;19.30;99.90;;;;;;5107835;22;20327;-76
2022/05/11 05:23:49;;;;;;;9.85;8.85;;;19.30;99.90;;;;;;5052237;28;20525;-76
2022/05/11 05:26:15;;;;;;;9.65;8.75;;;19.20;99.90;;;;;;5052494;28;20167;-77
2022/05/11 05:31:28;;;;;;;14.43;9.43;;;19.00;99.90;;;;;;5073435;28;20225;-77
2022/05/11 05:33:59;;;;;;;13.65;9.02;;;19.20;99.90;;;;;;5055229;28;20210;-76
2022/05/11 05:36:26;;;;;;;10.30;8.63;;;19.10;99.90;;;;;;5055079;28;20210;-77
2022/05/11 05:38:52;;;;;;;8.93;8.02;;;19.20;99.90;;;;;;5053421;28;20709;-77
2022/05/11 05:41:17;;;;;;;11.10;8.10;;;19.20;99.90;;;;;;5073226;28;20198;-78
2022/05/11 05:43:43;;;;;;;10.27;7.93;;;19.30;99.90;;;;;;5073018;28;20207;-76
2022/05/11 05:46:08;;;;;;;13.15;9.00;;;19.20;99.90;;;;;;5072891;28;20679;-77
2022/05/11 05:48:34;;;;;;;10.60;8.68;;;19.10;99.90;;;;;;5071632;28;20207;-78
2022/05/11 05:51:09;;;;;;;14.60;8.63;;;19.20;99.90;;;;;;5073064;28;20211;-76
2022/05/11 05:53:35;;;;;;;14.48;8.70;;;19.20;99.90;;;;;;5056561;28;20171;-76
2022/05/11 05:56:01;;;;;;;12.98;8.65;;;19.50;99.90;;;;;;5055610;28;20211;-77
2022/05/11 05:58:27;;;;;;;14.20;8.27;;;19.80;99.90;;;;;;5054914;28;20199;-79
2022/05/11 06:00:53;;;;;;;11.55;8.85;;;19.80;99.90;;;;;;5054857;28;20199;-76
2022/05/11 06:03:20;;;;;;;12.27;9.43;;;19.90;99.90;;;;;;5054885;28;20203;-76
2022/05/11 06:05:46;;;;;;;13.02;9.40;;;19.80;99.90;;;;;;5064708;28;20209;-76
2022/05/11 06:08:15;;;;;;;10.27;8.50;;;19.70;99.90;;;;;;5055953;28;20211;-79
2022/05/11 06:10:41;;;;;;;10.35;9.32;;;19.80;99.90;;;;;;5073205;28;20672;-76
2022/05/11 06:13:07;;;;;;;13.18;8.93;;;19.80;99.90;;;;;;5054950;28;20203;-76
2022/05/11 06:15:33;;;;;;;14.85;9.98;;;19.70;99.90;;;;;;5056369;28;20241;-76
2022/05/11 06:17:59;;;;;;;15.95;9.30;;;19.70;99.90;;;;;;5074013;28;20214;-75
2022/05/11 06:20:25;;;;;;;10.18;9.07;;;19.70;99.90;;;;;;5074376;28;20317;-76
2022/05/11 06:22:50;;;;;;;12.13;9.63;;;19.70;99.90;;;;;;5073093;28;20230;-77
2022/05/11 06:25:18;;;;;;;13.23;10.52;;;19.60;99.90;;;;;;5054305;28;20276;-76
2022/05/11 06:27:44;;;;;;;13.32;9.63;;;19.70;99.90;;;;;;5070925;28;20214;-76
2022/05/11 06:30:10;;;;;;;14.35;10.95;;;19.70;99.90;;;;;;5053423;28;20587;-77
2022/05/11 06:32:36;;;;;;;16.17;12.02;;;19.70;99.90;;;;;;5051909;28;20664;-76
2022/05/11 06:35:02;;;;;;;14.88;11.45;;;19.60;99.90;;;;;;5065892;28;20218;-75
2022/05/11 06:37:28;;;;;;;14.52;11.88;;;19.60;99.90;;;;;;5058174;28;20679;-77
2022/05/11 06:39:54;;;;;;;15.55;11.32;;;19.60;99.90;;;;;;5058345;28;20225;-77
2022/05/11 06:42:20;;;;;;;11.95;10.63;;;19.80;99.90;;;;;;5056446;28;20747;-73
2022/05/11 06:44:46;;;;;;;17.05;12.18;;;20.10;99.90;;;;;;5055591;28;20174;-73
2022/05/11 06:47:11;;;;;;;17.65;10.75;;;20.30;99.90;;;;;;5048653;28;20656;-79
2022/05/11 06:49:37;;;;;;;14.60;10.52;;;20.40;99.90;;;;;;5045823;28;20246;-76
2022/05/11 06:52:03;;;;;;;11.60;9.90;;;20.20;99.90;;;;;;5062075;28;20241;-77
2022/05/11 07:00:02;;;;;;;12.75;9.57;;;19.90;99.90;;;;;;5044796;28;20757;-72
2022/05/11 07:02:28;;;;;;;11.05;9.23;;;20.10;99.90;;;;;;5039273;28;20202;-71
2022/05/11 07:04:53;;;;;;;12.35;8.50;;;20.40;99.90;;;;;;5038119;28;20239;-75
2022/05/11 07:07:19;;;;;;;9.27;8.43;;;21.00;99.90;;;;;;5049134;28;20717;-72
2022/05/11 07:09:44;;;;;;;9.43;8.45;;;21.50;99.90;;;;;;5049191;28;20213;-76
2022/05/11 07:12:32;;;;;;;15.82;10.07;;;21.20;99.90;;;;;;5045808;28;20210;-74
2022/05/11 07:14:59;;;;;;;10.45;9.18;;;21.30;99.90;;;;;;5053566;28;20199;-77
2022/05/11 07:17:34;;;;;;;12.27;8.68;;;21.10;99.90;;;;;;5071654;28;20197;-73
2022/05/11 07:20:10;;;;;;;12.63;8.98;;;20.90;99.90;;;;;;5052151;28;20221;-73
2022/05/11 07:22:38;;;;;;;11.73;8.07;;;21.20;99.90;;;;;;5050321;28;20210;-73
2022/05/11 07:25:05;;;;;;;8.70;7.35;;;21.40;99.90;;;;;;5071039;28;20205;-74
2022/05/11 07:27:30;;;;;;;10.68;7.80;;;22.20;99.90;;;;;;5062399;28;20215;-72
2022/05/11 07:29:56;;;;;;;13.38;7.90;;;22.20;99.90;;;;;;5070299;28;20194;-72
2022/05/11 07:32:23;;;;;;;11.68;8.32;;;21.80;99.90;;;;;;5071466;28;20252;-77
2022/05/11 07:34:49;;;;;;;10.88;6.82;;;22.30;99.90;;;;;;5072532;28;20222;-73
2022/05/11 07:37:15;;;;;;;10.02;7.80;;;22.80;99.90;;;;;;5068166;28;20857;-70
2022/05/11 07:39:40;;;;;;;11.13;7.45;;;22.80;99.90;;;;;;5052237;28;20207;-74
2022/05/11 07:42:06;;;;;;;8.32;7.00;;;22.70;99.90;;;;;;5052991;28;20203;-76
2022/05/11 07:44:32;;;;;;;10.68;7.18;;;22.80;99.90;;;;;;5071553;28;20215;-73
2022/05/11 07:46:58;;;;;;;12.75;7.20;;;23.30;99.90;;;;;;5071124;28;20228;-74
2022/05/11 07:49:23;;;;;;;13.43;7.35;;;23.00;99.90;;;;;;5069969;28;20881;-72
2022/05/11 07:51:51;;;;;;;10.63;7.13;;;23.00;99.90;;;;;;5066633;28;20398;-72
2022/05/11 07:54:16;;;;;;;9.35;6.60;;;23.30;99.90;;;;;;5033291;28;20651;-74
2022/05/11 08:02:10;;;;;;;7.15;6.32;;;23.60;99.90;;;;;;5057075;28;20202;-71
2022/05/11 08:04:36;;;;;;;8.27;6.03;;;23.50;99.90;;;;;;5064785;28;20207;-72
2022/05/11 08:07:02;;;;;;;8.10;6.70;;;24.10;99.90;;;;;;5074470;28;20214;-72
2022/05/11 08:09:28;;;;;;;8.85;6.35;;;24.40;99.90;;;;;;5071788;28;20209;-74
2022/05/11 08:11:55;;;;;;;7.07;6.10;;;24.60;99.90;;;;;;5043077;28;20187;-74
2022/05/11 08:14:21;;;;;;;9.38;6.18;;;24.00;99.90;;;;;;5065677;28;20259;-75
2022/05/11 08:16:52;;;;;;;10.00;6.05;;;23.40;99.90;;;;;;5065537;28;20269;-74
2022/05/11 08:19:21;;;;;;;7.07;5.75;;;23.40;99.90;;;;;;5073386;28;20230;-75
2022/05/11 08:21:48;;;;;;;11.48;6.10;;;23.30;99.90;;;;;;5065799;28;20647;-74
2022/05/11 08:24:14;;;;;;;6.10;5.50;;;24.30;99.90;;;;;;5074496;28;20207;-73
2022/05/11 08:26:41;;;;;;;6.65;5.90;;;25.40;99.90;;;;;;5073900;28;20175;-76
2022/05/11 08:29:06;;;;;;;6.40;5.25;;;24.00;99.90;;;;;;5073454;28;20171;-74
2022/05/11 08:34:16;;;;;;;6.10;5.60;;;24.50;99.90;;;;;;5074113;28;20588;-72
2022/05/11 08:36:41;;;;;;;6.63;5.88;;;25.30;99.90;;;;;;5073808;28;20206;-74
2022/05/11 08:39:07;;;;;;;8.55;6.15;;;25.60;99.90;;;;;;5052494;28;20234;-72
2022/05/11 08:41:47;;;;;;;8.60;5.15;;;25.30;99.90;;;;;;5055034;28;20285;-73
2022/05/11 08:44:27;;;;;;;9.40;6.50;;;25.60;99.90;;;;;;5067370;28;20207;-72
2022/05/11 08:47:06;;;;;;;10.07;6.50;;;24.90;99.90;;;;;;5066026;28;20213;-72
2022/05/11 08:49:52;;;;;;;6.68;5.97;;;25.50;99.90;;;;;;5072989;28;20769;-72
2022/05/11 08:52:26;;;;;;;10.05;6.80;;;25.10;99.90;;;;;;5073681;28;20206;-72
2022/05/11 08:54:59;;;;;;;8.40;5.82;;;24.70;99.90;;;;;;5066292;28;20215;-71
2022/05/11 08:57:26;;;;;;;10.40;6.50;;;25.10;99.90;;;;;;5055497;28;20202;-72
2022/05/11 08:59:57;;;;;;;12.30;6.53;;;24.60;99.90;;;;;;5072963;28;20177;-72
2022/05/11 09:02:31;;;;;;;7.55;6.00;;;24.60;99.90;;;;;;5073820;28;20603;-72
2022/05/11 09:05:00;;;;;;;9.32;6.20;;;24.20;99.90;;;;;;5073371;28;20202;-72
2022/05/11 09:07:36;;;;;;;8.65;7.15;;;24.40;99.90;;;;;;5064746;28;20798;-72
2022/05/11 09:10:02;;;;;;;9.40;6.45;;;24.80;99.90;;;;;;5072617;28;20289;-73
2022/05/11 09:12:28;;;;;;;6.72;6.03;;;25.30;99.90;;;;;;5072879;28;20233;-72
2022/05/11 09:14:57;;;;;;;13.43;7.05;;;25.70;99.90;;;;;;5073138;28;20207;-72
2022/05/11 09:17:33;;;;;;;10.23;6.63;;;26.70;99.90;;;;;;5055466;28;20174;-72
2022/05/11 09:20:18;;;;;;;10.93;7.03;;;26.80;99.90;;;;;;5067083;28;20707;-73
2022/05/11 09:22:53;;;;;;;11.32;7.35;;;27.10;99.90;;;;;;5055097;28;20264;-72
2022/05/11 09:25:29;;;;;;;9.45;6.80;;;27.30;99.90;;;;;;5072999;28;20205;-73
2022/05/11 09:28:19;;;;;;;11.45;6.88;;;26.90;99.90;;;;;;5065167;28;20266;-72
2022/05/11 09:31:01;;;;;;;7.88;6.93;;;26.40;99.90;;;;;;5072872;28;20328;-73
2022/05/11 09:33:32;;;;;;;8.07;7.07;;;25.70;99.90;;;;;;5063713;28;20245;-73
2022/05/11 09:36:02;;;;;;;9.27;8.02;;;26.20;99.90;;;;;;5066082;28;20198;-72
2022/05/11 09:38:37;;;;;;;8.60;7.78;;;25.70;99.90;;;;;;5054353;28;20228;-72
2022/05/11 09:41:13;;;;;;;9.00;8.10;;;25.60;99.90;;;;;;5065164;28;20289;-73
2022/05/11 09:43:52;;;;;;;9.02;8.05;;;25.90;99.90;;;;;;5054656;28;20234;-72
2022/05/11 09:46:26;;;;;;;9.38;8.23;;;26.60;99.90;;;;;;5064730;28;20196;-72
2022/05/11 09:49:09;;;;;;;11.27;8.02;;;27.40;99.90;;;;;;5059977;28;20202;-72
2022/05/11 09:51:36;;;;;;;10.85;8.15;;;28.10;99.90;;;;;;5052430;28;20588;-73
2022/05/11 09:54:38;;;;;;;10.95;7.97;;;27.90;99.90;;;;;;5072411;28;20203;-72
2022/05/11 09:57:09;;;;;;;11.18;7.97;;;27.90;99.90;;;;;;5066432;28;20707;-72
2022/05/11 09:59:43;;;;;;;8.55;7.75;;;27.10;99.90;;;;;;5071413;28;20592;-72
2022/05/11 10:02:23;;;;;;;14.10;8.93;;;27.20;99.90;;;;;;5072443;28;20585;-73
2022/05/11 10:05:04;;;;;;;8.77;7.00;;;27.50;99.90;;;;;;5046077;28;20581;-72
2022/05/11 10:07:37;;;;;;;8.13;6.90;;;28.30;99.90;;;;;;5072012;28;20287;-72
2022/05/11 10:10:12;;;;;;;8.40;6.68;;;28.40;99.90;;;;;;5071450;28;20207;-72
2022/05/11 10:12:41;;;;;;;8.32;6.75;;;29.10;99.90;;;;;;5071482;28;20604;-73
2022/05/11 10:24:13;;;;;;;9.85;7.03;;;28.60;99.90;;;;;;5063881;28;20224;-74
2022/05/11 10:26:55;;;;;;;10.52;7.13;;;28.30;99.90;;;;;;5071773;28;20236;-75
2022/05/11 10:29:42;;;;;;;12.15;6.97;;;28.50;99.90;;;;;;5070488;28;20167;-75
2022/05/11 10:32:24;;;;;;;8.07;6.57;;;28.70;99.90;;;;;;5071625;28;20203;-74
2022/05/11 10:35:08;;;;;;;8.68;6.13;;;28.80;99.90;;;;;;5063873;28;20199;-75
2022/05/11 10:37:47;;;;;;;9.77;6.38;;;29.40;99.90;;;;;;5071489;28;20218;-74
2022/05/11 10:40:38;;;;;;;10.95;6.00;;;29.50;99.90;;;;;;5070821;28;20215;-72
2022/05/11 10:43:28;;;;;;;6.43;5.72;;;29.70;99.90;;;;;;5065876;28;20199;-73
2022/05/11 10:46:11;;;;;;;10.63;6.55;;;29.90;99.90;;;;;;5064197;28;20284;-74
2022/05/11 10:48:54;;;;;;;7.32;5.75;;;29.90;99.90;;;;;;5055470;28;20208;-76
2022/05/11 10:51:49;;;;;;;7.15;5.63;;;30.00;99.90;;;;;;5044073;28;20211;-74
2022/05/11 10:54:42;;;;;;;5.95;5.30;;;29.60;99.90;;;;;;5053425;28;20203;-75
2022/05/11 10:57:14;;;;;;;7.63;4.90;;;29.10;99.90;;;;;;5065403;28;20206;-71
2022/05/11 10:59:59;;;;;;;6.82;4.80;;;28.80;99.90;;;;;;5050198;28;20271;-74
2022/05/11 11:03:02;;;;;;;5.80;5.07;;;28.60;99.90;;;;;;5072224;28;20178;-73
2022/05/11 11:05:40;;;;;;;5.30;4.68;;;29.10;99.90;;;;;;5056132;28;20703;-73
2022/05/11 11:08:20;;;;;;;6.30;4.43;;;29.10;99.90;;;;;;5064304;28;20246;-73
2022/05/11 11:11:01;;;;;;;4.97;4.55;;;29.30;99.90;;;;;;5063236;28;20591;-79
2022/05/11 11:13:40;;;;;;;4.65;4.25;;;29.30;99.90;;;;;;5046107;28;20207;-80
2022/05/11 11:16:10;;;;;;;10.45;4.45;;;29.50;99.90;;;;;;5073357;28;20241;-76
2022/05/11 11:18:40;;;;;;;4.82;4.10;;;29.30;99.90;;;;;;5069958;28;20233;-75
2022/05/11 11:21:09;;;;;;;6.75;4.30;;;29.40;99.90;;;;;;5053027;28;20746;-75
2022/05/11 11:23:37;;;;;;;5.40;4.70;;;29.10;99.90;;;;;;5088300;23;20777;-73
2022/05/11 11:26:09;;;;;;;5.55;3.97;;;28.90;99.90;;;;;;5091291;28;20721;-76
2022/05/11 11:28:41;;;;;;;5.30;4.15;;;29.10;99.90;;;;;;5091569;28;20213;-76
2022/05/11 11:31:09;;;;;;;5.03;3.97;;;29.50;99.90;;;;;;5091852;28;20210;-77
2022/05/11 11:33:54;;;;;;;7.95;4.10;;;29.70;99.90;;;;;;5095608;28;20214;-78
2022/05/11 11:36:26;;;;;;;6.68;4.22;;;29.50;99.90;;;;;;5096808;28;20241;-78
2022/05/11 11:38:53;;;;;;;10.07;3.78;;;29.70;99.90;;;;;;5095045;28;20174;-80
2022/05/11 11:41:28;;;;;;;4.20;3.80;;;29.90;99.90;;;;;;5105511;28;20171;-82
2022/05/11 11:44:00;;;;;;;7.88;3.80;;;29.90;99.30;;;;;;5096988;28;20265;-78
2022/05/11 11:46:41;;;;;;;8.15;4.20;;;29.60;99.70;;;;;;5112122;28;20198;-78
2022/05/11 11:49:19;;;;;;;4.70;3.58;;;29.80;99.40;;;;;;5118818;28;20205;-78
2022/05/11 11:51:51;;;;;;;7.82;3.92;;;29.80;99.20;;;;;;5104963;28;20202;-78
2022/05/11 11:54:38;;;;;;;9.65;3.67;;;30.00;98.90;;;;;;5096699;28;20210;-78
2022/05/11 11:57:06;;;;;;;4.82;3.50;;;30.10;98.20;;;;;;5099538;28;20209;-79
2022/05/11 11:59:41;;;;;;;5.05;3.85;;;30.00;97.90;;;;;;5105296;28;20190;-78
2022/05/11 12:02:29;;;;;;;5.82;4.93;;;29.60;97.00;;;;;;5106585;28;20202;-79
2022/05/11 12:05:00;;;;;;;4.68;3.65;;;29.80;96.80;;;;;;5108384;28;20194;-79
2022/05/11 12:16:18;;;;;;;6.13;3.58;;;29.30;96.30;;;;;;5104031;28;20264;-79
2022/05/11 12:18:45;;;;;;;5.63;3.80;;;29.00;96.20;;;;;;5105225;28;20210;-79
2022/05/11 12:21:30;;;;;;;7.70;3.53;;;29.10;96.50;;;;;;5106824;28;20209;-79
2022/05/11 12:23:58;;;;;;;7.70;3.63;;;29.10;97.10;;;;;;5100167;28;20221;-78
2022/05/11 12:26:30;;;;;;;6.00;3.78;;;29.00;97.10;;;;;;5113216;28;20179;-80
2022/05/11 12:31:56;;;;;;;5.75;3.90;;;28.90;96.70;;;;;;5105373;28;20285;-79
2022/05/11 12:34:24;;;;;;;9.75;3.90;;;29.10;96.60;;;;;;5112668;28;20704;-79
2022/05/11 12:36:51;;;;;;;7.13;3.80;;;29.30;96.40;;;;;;5109492;28;20214;-78
2022/05/11 12:39:31;;;;;;;5.95;3.42;;;29.20;95.80;;;;;;5108056;28;20210;-78
2022/05/11 12:41:57;;;;;;;6.47;3.65;;;29.10;95.90;;;;;;5095004;28;20181;-79
2022/05/11 12:44:30;;;;;;;12.82;3.80;;;29.10;95.90;;;;;;5102281;28;20182;-79
2022/05/11 12:46:58;;;;;;;4.07;3.53;;;29.20;95.70;;;;;;5102403;28;20198;-79
2022/05/11 12:49:26;;;;;;;5.68;3.58;;;29.20;95.70;;;;;;5102768;28;20202;-79
2022/05/11 12:51:57;;;;;;;6.90;3.83;;;29.40;95.60;;;;;;5102778;28;20560;-79
2022/05/11 12:54:29;;;;;;;5.38;3.63;;;29.40;95.50;;;;;;5118176;28;20237;-78
2022/05/11 12:57:08;;;;;;;4.88;3.47;;;29.50;95.70;;;;;;5103613;28;20194;-78
2022/05/11 12:59:35;;;;;;;4.47;3.58;;;29.30;95.70;;;;;;5100979;28;20631;-78
2022/05/11 13:02:16;;;;;;;4.38;3.65;;;29.10;95.60;;;;;;5103339;28;20206;-79
2022/05/11 13:04:53;;;;;;;4.75;3.53;;;29.10;96.10;;;;;;5104957;28;20194;-79
2022/05/11 13:07:23;;;;;;;6.30;3.60;;;29.00;96.00;;;;;;5104769;28;20704;-80
2022/05/11 13:09:52;;;;;;;5.78;3.53;;;29.00;95.90;;;;;;5094166;28;20214;-79
2022/05/11 13:12:18;;;;;;;4.60;3.63;;;29.00;96.00;;;;;;5120755;28;20203;-79
2022/05/11 13:14:51;;;;;;;6.40;3.72;;;28.70;96.20;;;;;;5120306;28;20257;-79
2022/05/11 13:17:28;;;;;;;10.35;3.80;;;28.80;96.40;;;;;;5105691;28;20171;-79
2022/05/11 13:19:57;;;;;;;6.68;4.63;;;28.90;96.40;;;;;;5094495;28;20613;-79
2022/05/11 13:22:25;;;;;;;9.88;3.70;;;28.70;96.40;;;;;;5104752;28;20259;-78
2022/05/11 13:24:54;;;;;;;4.47;3.30;;;28.70;96.40;;;;;;5102034;28;20206;-78
2022/05/11 13:27:48;;;;;;;6.78;3.90;;;28.80;96.00;;;;;;5100135;28;20206;-78
2022/05/11 13:30:27;;;;;;;5.47;3.58;;;28.80;95.80;;;;;;5096345;28;20203;-80
2022/05/11 13:33:03;;;;;;;4.97;4.00;;;28.80;95.40;;;;;;5095551;28;20222;-79
2022/05/11 13:35:35;;;;;;;6.72;4.18;;;28.80;95.50;;;;;;5103807;28;20198;-79
2022/05/11 13:38:10;;;;;;;5.82;3.65;;;28.80;95.60;;;;;;5100518;28;20240;-78
2022/05/11 13:40:35;;;;;;;7.85;3.40;;;28.80;95.20;;;;;;5102663;28;20284;-80
2022/05/11 13:43:14;;;;;;;11.25;4.03;;;28.80;94.80;;;;;;5102311;28;20209;-78